sensor_id;sensor_type;location;lat;lon;timestamp;temperature;humidity
14769;DHT22;7476;49.404;11.152;2023-03-13T00:01:41;7.80;99.90
14769;DHT22;7476;49.404;11.152;2023-03-13T00:04:08;7.80;99.90
14769;DHT22;7476;49.404;11.152;2023-03-13T00:06:36;7.70;99.90
14769;DHT22;7476;49.404;11.152;2023-03-13T00:09:06;7.70;99.90
14769;DHT22;7476;49.404;11.152;2023-03-13T00:11:33;7.70;99.90
14769;DHT22;7476;49.404;11.152;2023-03-13T00:14:01;7.60;99.90
14769;DHT22;7476;49.404;11.152;2023-03-13T00:16:28;7.60;99.90
14769;DHT22;7476;49.404;11.152;2023-03-13T00:18:56;7.70;99.90
14769;DHT22;7476;49.404;11.152;2023-03-13T00:21:25;7.70;99.90
14769;DHT22;7476;49.404;11.152;2023-03-13T00:23:52;7.80;99.90
14769;DHT22;7476;49.404;11.152;2023-03-13T00:26:21;7.90;99.90
14769;DHT22;7476;49.404;11.152;2023-03-13T00:28:49;7.90;99.90
14769;DHT22;7476;49.404;11.152;2023-03-13T00:31:18;7.90;99.90
14769;DHT22;7476;49.404;11.152;2023-03-13T00:33:47;7.90;99.90
14769;DHT22;7476;49.404;11.152;2023-03-13T00:36:15;7.90;99.90
14769;DHT22;7476;49.404;11.152;2023-03-13T00:38:43;7.90;99.90
14769;DHT22;7476;49.404;11.152;2023-03-13T00:41:11;7.90;99.90
14769;DHT22;7476;49.404;11.152;2023-03-13T00:43:40;7.90;99.90
14769;DHT22;7476;49.404;11.152;2023-03-13T00:46:08;7.90;99.90
14769;DHT22;7476;49.404;11.152;2023-03-13T00:48:35;7.90;99.90
14769;DHT22;7476;49.404;11.152;2023-03-13T00:51:03;7.90;99.90
14769;DHT22;7476;49.404;11.152;2023-03-13T00:53:30;7.80;99.90
14769;DHT22;7476;49.404;11.152;2023-03-13T00:55:59;7.70;99.90
14769;DHT22;7476;49.404;11.152;2023-03-13T00:58:27;7.70;99.90
14769;DHT22;7476;49.404;11.152;2023-03-13T01:00:56;7.70;99.90
14769;DHT22;7476;49.404;11.152;2023-03-13T01:03:23;7.80;99.90
14769;DHT22;7476;49.404;11.152;2023-03-13T01:05:57;7.70;99.90
14769;DHT22;7476;49.404;11.152;2023-03-13T01:08:24;7.70;99.90
14769;DHT22;7476;49.404;11.152;2023-03-13T01:10:57;7.80;99.90
14769;DHT22;7476;49.404;11.152;2023-03-13T01:13:24;7.80;99.90
14769;DHT22;7476;49.404;11.152;2023-03-13T01:15:50;7.90;99.90
14769;DHT22;7476;49.404;11.152;2023-03-13T01:18:18;7.90;99.90
14769;DHT22;7476;49.404;11.152;2023-03-13T01:20:45;8.00;99.90
14769;DHT22;7476;49.404;11.152;2023-03-13T01:23:12;8.00;99.90
14769;DHT22;7476;49.404;11.152;2023-03-13T01:25:40;8.10;99.90
14769;DHT22;7476;49.404;11.152;2023-03-13T01:28:06;8.10;99.90
14769;DHT22;7476;49.404;11.152;2023-03-13T01:30:33;8.10;99.90
14769;DHT22;7476;49.404;11.152;2023-03-13T01:33:00;8.10;99.90
14769;DHT22;7476;49.404;11.152;2023-03-13T01:35:28;8.10;99.90
14769;DHT22;7476;49.404;11.152;2023-03-13T01:37:55;8.00;99.90
14769;DHT22;7476;49.404;11.152;2023-03-13T01:40:21;8.00;99.90
14769;DHT22;7476;49.404;11.152;2023-03-13T01:42:50;8.00;99.90
14769;DHT22;7476;49.404;11.152;2023-03-13T01:45:50;8.00;99.90
14769;DHT22;7476;49.404;11.152;2023-03-13T01:48:19;8.00;99.90
14769;DHT22;7476;49.404;11.152;2023-03-13T01:50:48;8.00;99.90
14769;DHT22;7476;49.404;11.152;2023-03-13T01:53:15;7.90;99.90
14769;DHT22;7476;49.404;11.152;2023-03-13T01:55:41;7.90;99.90
14769;DHT22;7476;49.404;11.152;2023-03-13T01:58:08;7.90;99.90
14769;DHT22;7476;49.404;11.152;2023-03-13T02:00:36;8.00;99.90
14769;DHT22;7476;49.404;11.152;2023-03-13T02:03:07;8.00;99.90
14769;DHT22;7476;49.404;11.152;2023-03-13T02:05:35;8.00;99.90
14769;DHT22;7476;49.404;11.152;2023-03-13T02:08:07;8.10;99.90
14769;DHT22;7476;49.404;11.152;2023-03-13T02:10:40;8.10;99.90
14769;DHT22;7476;49.404;11.152;2023-03-13T02:13:07;8.10;99.90
14769;DHT22;7476;49.404;11.152;2023-03-13T02:15:40;8.10;99.90
14769;DHT22;7476;49.404;11.152;2023-03-13T02:18:06;8.20;99.90
14769;DHT22;7476;49.404;11.152;2023-03-13T02:20:33;8.20;99.90
14769;DHT22;7476;49.404;11.152;2023-03-13T02:23:05;8.20;99.90
14769;DHT22;7476;49.404;11.152;2023-03-13T02:25:39;8.30;99.90
14769;DHT22;7476;49.404;11.152;2023-03-13T02:28:11;8.30;99.90
14769;DHT22;7476;49.404;11.152;2023-03-13T02:30:39;8.20;99.90
14769;DHT22;7476;49.404;11.152;2023-03-13T02:33:07;8.20;99.90
14769;DHT22;7476;49.404;11.152;2023-03-13T02:35:36;8.20;99.90
14769;DHT22;7476;49.404;11.152;2023-03-13T02:38:05;8.20;99.90
14769;DHT22;7476;49.404;11.152;2023-03-13T02:40:37;8.20;99.90
14769;DHT22;7476;49.404;11.152;2023-03-13T02:43:08;8.10;99.90
14769;DHT22;7476;49.404;11.152;2023-03-13T02:45:36;8.10;99.90
14769;DHT22;7476;49.404;11.152;2023-03-13T02:48:03;8.10;99.90
14769;DHT22;7476;49.404;11.152;2023-03-13T02:50:30;8.00;99.90
14769;DHT22;7476;49.404;11.152;2023-03-13T02:53:00;8.00;99.90
14769;DHT22;7476;49.404;11.152;2023-03-13T02:55:31;8.00;99.90
14769;DHT22;7476;49.404;11.152;2023-03-13T02:58:01;8.00;99.90
14769;DHT22;7476;49.404;11.152;2023-03-13T03:00:28;8.00;99.90
14769;DHT22;7476;49.404;11.152;2023-03-13T03:02:55;8.00;99.90
14769;DHT22;7476;49.404;11.152;2023-03-13T03:05:22;8.00;99.90
14769;DHT22;7476;49.404;11.152;2023-03-13T03:07:49;7.90;99.90
14769;DHT22;7476;49.404;11.152;2023-03-13T03:10:17;7.90;99.90
14769;DHT22;7476;49.404;11.152;2023-03-13T03:12:44;7.90;99.90
14769;DHT22;7476;49.404;11.152;2023-03-13T03:15:12;7.90;99.90
14769;DHT22;7476;49.404;11.152;2023-03-13T03:17:39;7.90;99.90
14769;DHT22;7476;49.404;11.152;2023-03-13T03:20:06;7.80;99.90
14769;DHT22;7476;49.404;11.152;2023-03-13T03:22:36;7.80;99.90
14769;DHT22;7476;49.404;11.152;2023-03-13T03:25:03;7.80;99.90
14769;DHT22;7476;49.404;11.152;2023-03-13T03:27:30;7.70;99.90
14769;DHT22;7476;49.404;11.152;2023-03-13T03:29:57;7.70;99.90
14769;DHT22;7476;49.404;11.152;2023-03-13T03:32:25;7.70;99.90
14769;DHT22;7476;49.404;11.152;2023-03-13T03:34:52;7.70;99.90
14769;DHT22;7476;49.404;11.152;2023-03-13T03:37:18;7.70;99.90
14769;DHT22;7476;49.404;11.152;2023-03-13T03:39:45;7.60;99.90
14769;DHT22;7476;49.404;11.152;2023-03-13T03:42:12;7.60;99.90
14769;DHT22;7476;49.404;11.152;2023-03-13T03:44:38;7.60;99.90
14769;DHT22;7476;49.404;11.152;2023-03-13T03:47:06;7.60;99.90
14769;DHT22;7476;49.404;11.152;2023-03-13T03:49:35;7.70;99.90
14769;DHT22;7476;49.404;11.152;2023-03-13T03:52:01;7.70;99.90
14769;DHT22;7476;49.404;11.152;2023-03-13T03:54:28;7.70;99.90
14769;DHT22;7476;49.404;11.152;2023-03-13T03:56:55;7.70;99.90
14769;DHT22;7476;49.404;11.152;2023-03-13T03:59:21;7.70;99.90
14769;DHT22;7476;49.404;11.152;2023-03-13T04:01:48;7.70;99.90
14769;DHT22;7476;49.404;11.152;2023-03-13T04:04:15;7.80;99.90
14769;DHT22;7476;49.404;11.152;2023-03-13T04:06:43;7.90;99.90
14769;DHT22;7476;49.404;11.152;2023-03-13T04:09:09;7.90;99.90
14769;DHT22;7476;49.404;11.152;2023-03-13T04:11:36;8.00;99.90
14769;DHT22;7476;49.404;11.152;2023-03-13T04:14:03;8.00;99.90
14769;DHT22;7476;49.404;11.152;2023-03-13T04:16:29;8.00;99.90
14769;DHT22;7476;49.404;11.152;2023-03-13T04:18:56;8.00;99.90
14769;DHT22;7476;49.404;11.152;2023-03-13T04:21:23;8.00;99.90
14769;DHT22;7476;49.404;11.152;2023-03-13T04:23:51;8.00;99.90
14769;DHT22;7476;49.404;11.152;2023-03-13T04:26:17;8.10;99.90
14769;DHT22;7476;49.404;11.152;2023-03-13T04:28:44;8.10;99.90
14769;DHT22;7476;49.404;11.152;2023-03-13T04:31:11;8.10;99.90
14769;DHT22;7476;49.404;11.152;2023-03-13T04:33:37;8.10;99.90
14769;DHT22;7476;49.404;11.152;2023-03-13T04:36:05;8.10;99.90
14769;DHT22;7476;49.404;11.152;2023-03-13T04:38:31;8.20;99.90
14769;DHT22;7476;49.404;11.152;2023-03-13T04:40:59;8.20;99.90
14769;DHT22;7476;49.404;11.152;2023-03-13T04:43:26;8.20;99.90
14769;DHT22;7476;49.404;11.152;2023-03-13T04:45:53;8.10;99.90
14769;DHT22;7476;49.404;11.152;2023-03-13T04:48:20;8.20;99.90
14769;DHT22;7476;49.404;11.152;2023-03-13T04:50:47;8.10;99.90
14769;DHT22;7476;49.404;11.152;2023-03-13T04:53:14;8.10;99.90
14769;DHT22;7476;49.404;11.152;2023-03-13T04:55:41;8.10;99.90
14769;DHT22;7476;49.404;11.152;2023-03-13T04:58:09;8.00;99.90
14769;DHT22;7476;49.404;11.152;2023-03-13T05:00:35;8.00;99.90
14769;DHT22;7476;49.404;11.152;2023-03-13T05:03:04;8.10;99.90
14769;DHT22;7476;49.404;11.152;2023-03-13T05:05:33;8.00;99.90
14769;DHT22;7476;49.404;11.152;2023-03-13T05:08:00;8.10;99.90
14769;DHT22;7476;49.404;11.152;2023-03-13T05:10:27;8.00;99.90
14769;DHT22;7476;49.404;11.152;2023-03-13T05:12:53;8.10;99.90
14769;DHT22;7476;49.404;11.152;2023-03-13T05:15:21;8.10;99.90
14769;DHT22;7476;49.404;11.152;2023-03-13T05:17:48;8.10;99.90
14769;DHT22;7476;49.404;11.152;2023-03-13T05:20:15;8.00;99.90
14769;DHT22;7476;49.404;11.152;2023-03-13T05:22:41;8.00;99.90
14769;DHT22;7476;49.404;11.152;2023-03-13T05:25:08;8.00;99.90
14769;DHT22;7476;49.404;11.152;2023-03-13T05:27:35;8.00;99.90
14769;DHT22;7476;49.404;11.152;2023-03-13T05:30:02;8.00;99.90
14769;DHT22;7476;49.404;11.152;2023-03-13T05:32:30;8.00;99.90
14769;DHT22;7476;49.404;11.152;2023-03-13T05:34:57;8.00;99.90
14769;DHT22;7476;49.404;11.152;2023-03-13T05:37:24;7.90;99.90
14769;DHT22;7476;49.404;11.152;2023-03-13T05:39:50;7.80;99.90
14769;DHT22;7476;49.404;11.152;2023-03-13T05:42:17;7.80;99.90
14769;DHT22;7476;49.404;11.152;2023-03-13T05:44:44;7.80;99.90
14769;DHT22;7476;49.404;11.152;2023-03-13T05:47:10;7.80;99.90
14769;DHT22;7476;49.404;11.152;2023-03-13T05:49:38;7.70;99.90
14769;DHT22;7476;49.404;11.152;2023-03-13T05:52:05;7.80;99.90
14769;DHT22;7476;49.404;11.152;2023-03-13T05:54:32;7.80;99.90
14769;DHT22;7476;49.404;11.152;2023-03-13T05:56:58;7.80;99.90
14769;DHT22;7476;49.404;11.152;2023-03-13T05:59:25;7.90;99.90
14769;DHT22;7476;49.404;11.152;2023-03-13T06:01:52;7.90;99.90
14769;DHT22;7476;49.404;11.152;2023-03-13T06:04:18;7.90;99.90
14769;DHT22;7476;49.404;11.152;2023-03-13T06:06:46;7.90;99.90
14769;DHT22;7476;49.404;11.152;2023-03-13T06:09:13;7.90;99.90
14769;DHT22;7476;49.404;11.152;2023-03-13T06:11:40;7.90;99.90
14769;DHT22;7476;49.404;11.152;2023-03-13T06:14:07;7.80;99.90
14769;DHT22;7476;49.404;11.152;2023-03-13T06:16:34;7.80;99.90
14769;DHT22;7476;49.404;11.152;2023-03-13T06:19:00;7.80;99.90
14769;DHT22;7476;49.404;11.152;2023-03-13T06:21:27;7.80;99.90
14769;DHT22;7476;49.404;11.152;2023-03-13T06:23:55;7.80;99.90
14769;DHT22;7476;49.404;11.152;2023-03-13T06:26:22;7.80;99.90
14769;DHT22;7476;49.404;11.152;2023-03-13T06:28:50;7.90;99.90
14769;DHT22;7476;49.404;11.152;2023-03-13T06:31:17;7.90;99.90
14769;DHT22;7476;49.404;11.152;2023-03-13T06:33:43;7.90;99.90
14769;DHT22;7476;49.404;11.152;2023-03-13T06:36:11;7.90;99.90
14769;DHT22;7476;49.404;11.152;2023-03-13T06:38:38;8.00;99.90
14769;DHT22;7476;49.404;11.152;2023-03-13T06:41:06;8.00;99.90
14769;DHT22;7476;49.404;11.152;2023-03-13T06:43:33;8.00;99.90
14769;DHT22;7476;49.404;11.152;2023-03-13T06:46:02;8.00;99.90
14769;DHT22;7476;49.404;11.152;2023-03-13T06:48:29;8.00;99.90
14769;DHT22;7476;49.404;11.152;2023-03-13T06:50:56;8.10;99.90
14769;DHT22;7476;49.404;11.152;2023-03-13T06:53:23;8.10;99.90
14769;DHT22;7476;49.404;11.152;2023-03-13T06:55:50;8.10;99.90
14769;DHT22;7476;49.404;11.152;2023-03-13T06:58:18;8.20;99.90
14769;DHT22;7476;49.404;11.152;2023-03-13T07:00:47;8.20;99.90
14769;DHT22;7476;49.404;11.152;2023-03-13T07:03:13;8.20;99.90
14769;DHT22;7476;49.404;11.152;2023-03-13T07:05:40;8.30;99.90
14769;DHT22;7476;49.404;11.152;2023-03-13T07:08:07;8.30;99.90
14769;DHT22;7476;49.404;11.152;2023-03-13T07:10:35;8.30;99.90
14769;DHT22;7476;49.404;11.152;2023-03-13T07:13:01;8.40;99.90
14769;DHT22;7476;49.404;11.152;2023-03-13T07:15:29;8.40;99.90
14769;DHT22;7476;49.404;11.152;2023-03-13T07:17:56;8.50;99.90
14769;DHT22;7476;49.404;11.152;2023-03-13T07:20:23;8.40;99.90
14769;DHT22;7476;49.404;11.152;2023-03-13T07:22:50;8.50;99.90
14769;DHT22;7476;49.404;11.152;2023-03-13T07:25:18;8.50;99.90
14769;DHT22;7476;49.404;11.152;2023-03-13T07:27:44;8.60;99.90
14769;DHT22;7476;49.404;11.152;2023-03-13T07:30:12;8.70;99.90
14769;DHT22;7476;49.404;11.152;2023-03-13T07:32:40;8.80;99.90
14769;DHT22;7476;49.404;11.152;2023-03-13T07:35:07;9.00;99.90
14769;DHT22;7476;49.404;11.152;2023-03-13T07:37:33;9.10;99.90
14769;DHT22;7476;49.404;11.152;2023-03-13T07:40:00;9.30;99.90
14769;DHT22;7476;49.404;11.152;2023-03-13T07:42:26;9.40;99.90
14769;DHT22;7476;49.404;11.152;2023-03-13T07:44:53;9.60;99.90
14769;DHT22;7476;49.404;11.152;2023-03-13T07:47:20;9.70;99.90
14769;DHT22;7476;49.404;11.152;2023-03-13T07:49:48;9.80;99.90
14769;DHT22;7476;49.404;11.152;2023-03-13T07:52:14;10.00;99.90
14769;DHT22;7476;49.404;11.152;2023-03-13T07:54:42;10.20;99.90
14769;DHT22;7476;49.404;11.152;2023-03-13T07:57:09;10.30;99.90
14769;DHT22;7476;49.404;11.152;2023-03-13T07:59:35;10.40;99.90
14769;DHT22;7476;49.404;11.152;2023-03-13T08:02:02;10.50;99.90
14769;DHT22;7476;49.404;11.152;2023-03-13T08:04:29;10.60;99.90
14769;DHT22;7476;49.404;11.152;2023-03-13T08:06:57;10.80;99.90
14769;DHT22;7476;49.404;11.152;2023-03-13T08:09:24;10.90;99.90
14769;DHT22;7476;49.404;11.152;2023-03-13T08:11:50;11.10;99.90
14769;DHT22;7476;49.404;11.152;2023-03-13T08:14:17;11.20;99.90
14769;DHT22;7476;49.404;11.152;2023-03-13T08:16:44;11.40;99.90
14769;DHT22;7476;49.404;11.152;2023-03-13T08:19:10;11.50;99.90
14769;DHT22;7476;49.404;11.152;2023-03-13T08:21:38;11.60;99.90
14769;DHT22;7476;49.404;11.152;2023-03-13T08:24:07;11.60;99.90
14769;DHT22;7476;49.404;11.152;2023-03-13T08:26:36;11.70;99.90
14769;DHT22;7476;49.404;11.152;2023-03-13T08:29:05;11.80;99.90
14769;DHT22;7476;49.404;11.152;2023-03-13T08:31:33;12.00;99.90
14769;DHT22;7476;49.404;11.152;2023-03-13T08:34:00;12.10;99.90
14769;DHT22;7476;49.404;11.152;2023-03-13T08:36:29;12.20;99.90
14769;DHT22;7476;49.404;11.152;2023-03-13T08:38:58;12.30;99.90
14769;DHT22;7476;49.404;11.152;2023-03-13T08:41:28;12.30;99.90
14769;DHT22;7476;49.404;11.152;2023-03-13T08:43:56;12.30;99.90
14769;DHT22;7476;49.404;11.152;2023-03-13T08:46:23;12.10;99.90
14769;DHT22;7476;49.404;11.152;2023-03-13T08:48:51;12.10;99.90
14769;DHT22;7476;49.404;11.152;2023-03-13T08:51:20;12.30;99.90
14769;DHT22;7476;49.404;11.152;2023-03-13T08:53:48;12.30;99.90
14769;DHT22;7476;49.404;11.152;2023-03-13T08:56:16;12.30;99.90
14769;DHT22;7476;49.404;11.152;2023-03-13T08:58:48;12.30;99.90
14769;DHT22;7476;49.404;11.152;2023-03-13T09:01:15;12.30;99.90
14769;DHT22;7476;49.404;11.152;2023-03-13T09:03:42;12.40;99.90
14769;DHT22;7476;49.404;11.152;2023-03-13T09:06:09;12.50;99.90
14769;DHT22;7476;49.404;11.152;2023-03-13T09:08:37;12.60;99.90
14769;DHT22;7476;49.404;11.152;2023-03-13T09:11:06;12.60;99.90
14769;DHT22;7476;49.404;11.152;2023-03-13T09:13:34;12.80;99.90
14769;DHT22;7476;49.404;11.152;2023-03-13T09:16:04;13.10;99.90
14769;DHT22;7476;49.404;11.152;2023-03-13T09:18:32;13.50;99.90
14769;DHT22;7476;49.404;11.152;2023-03-13T09:20:59;13.80;99.90
14769;DHT22;7476;49.404;11.152;2023-03-13T09:23:26;14.20;99.90
14769;DHT22;7476;49.404;11.152;2023-03-13T09:25:54;14.40;99.90
14769;DHT22;7476;49.404;11.152;2023-03-13T09:28:22;14.80;99.90
14769;DHT22;7476;49.404;11.152;2023-03-13T09:30:49;15.10;99.90
14769;DHT22;7476;49.404;11.152;2023-03-13T09:33:18;15.40;99.90
14769;DHT22;7476;49.404;11.152;2023-03-13T09:35:45;15.70;99.90
14769;DHT22;7476;49.404;11.152;2023-03-13T09:38:15;15.90;99.90
14769;DHT22;7476;49.404;11.152;2023-03-13T09:40:45;15.90;99.90
14769;DHT22;7476;49.404;11.152;2023-03-13T09:43:20;16.00;99.90
14769;DHT22;7476;49.404;11.152;2023-03-13T09:45:53;16.00;99.90
14769;DHT22;7476;49.404;11.152;2023-03-13T09:48:29;16.00;99.90
14769;DHT22;7476;49.404;11.152;2023-03-13T09:51:00;15.90;99.90
14769;DHT22;7476;49.404;11.152;2023-03-13T09:53:35;15.70;99.90
14769;DHT22;7476;49.404;11.152;2023-03-13T09:56:08;15.70;99.90
14769;DHT22;7476;49.404;11.152;2023-03-13T09:58:49;16.10;99.90
14769;DHT22;7476;49.404;11.152;2023-03-13T10:01:21;16.70;99.90
14769;DHT22;7476;49.404;11.152;2023-03-13T10:03:57;17.10;99.90
14769;DHT22;7476;49.404;11.152;2023-03-13T10:06:27;17.30;99.90
14769;DHT22;7476;49.404;11.152;2023-03-13T10:08:57;17.40;99.90
14769;DHT22;7476;49.404;11.152;2023-03-13T10:11:27;17.20;99.90
14769;DHT22;7476;49.404;11.152;2023-03-13T10:13:59;16.50;99.90
14769;DHT22;7476;49.404;11.152;2023-03-13T10:16:31;16.10;99.90
14769;DHT22;7476;49.404;11.152;2023-03-13T10:19:10;15.80;99.90
14769;DHT22;7476;49.404;11.152;2023-03-13T10:21:37;15.70;99.90
14769;DHT22;7476;49.404;11.152;2023-03-13T10:24:15;15.60;99.90
14769;DHT22;7476;49.404;11.152;2023-03-13T10:26:43;15.50;99.90
14769;DHT22;7476;49.404;11.152;2023-03-13T10:29:19;15.40;99.90
14769;DHT22;7476;49.404;11.152;2023-03-13T10:31:54;15.40;99.90
14769;DHT22;7476;49.404;11.152;2023-03-13T10:34:23;15.40;99.90
14769;DHT22;7476;49.404;11.152;2023-03-13T10:36:55;15.40;99.90
14769;DHT22;7476;49.404;11.152;2023-03-13T10:39:24;15.40;99.90
14769;DHT22;7476;49.404;11.152;2023-03-13T10:41:56;15.20;99.90
14769;DHT22;7476;49.404;11.152;2023-03-13T10:44:31;15.10;99.90
14769;DHT22;7476;49.404;11.152;2023-03-13T10:47:00;14.90;99.90
14769;DHT22;7476;49.404;11.152;2023-03-13T10:49:29;14.70;99.90
14769;DHT22;7476;49.404;11.152;2023-03-13T10:51:58;14.70;99.90
14769;DHT22;7476;49.404;11.152;2023-03-13T10:54:27;14.60;99.90
14769;DHT22;7476;49.404;11.152;2023-03-13T10:57:13;14.50;99.90
14769;DHT22;7476;49.404;11.152;2023-03-13T10:59:47;14.50;99.90
14769;DHT22;7476;49.404;11.152;2023-03-13T11:02:22;14.50;99.90
14769;DHT22;7476;49.404;11.152;2023-03-13T11:04:53;14.50;99.90
14769;DHT22;7476;49.404;11.152;2023-03-13T11:07:24;14.60;99.90
14769;DHT22;7476;49.404;11.152;2023-03-13T11:10:01;14.70;99.90
14769;DHT22;7476;49.404;11.152;2023-03-13T11:12:28;14.70;99.90
14769;DHT22;7476;49.404;11.152;2023-03-13T11:14:59;14.70;99.90
14769;DHT22;7476;49.404;11.152;2023-03-13T11:17:32;14.60;99.90
14769;DHT22;7476;49.404;11.152;2023-03-13T11:23:03;14.60;99.90
14769;DHT22;7476;49.404;11.152;2023-03-13T11:25:35;14.60;99.90
14769;DHT22;7476;49.404;11.152;2023-03-13T11:28:14;14.70;99.90
14769;DHT22;7476;49.404;11.152;2023-03-13T11:31:01;14.80;99.90
14769;DHT22;7476;49.404;11.152;2023-03-13T11:33:34;15.00;99.90
14769;DHT22;7476;49.404;11.152;2023-03-13T11:36:10;15.30;99.90
14769;DHT22;7476;49.404;11.152;2023-03-13T11:38:41;15.80;99.90
14769;DHT22;7476;49.404;11.152;2023-03-13T11:41:20;16.50;99.90
14769;DHT22;7476;49.404;11.152;2023-03-13T11:44:02;17.00;99.90
14769;DHT22;7476;49.404;11.152;2023-03-13T11:46:39;17.10;99.90
14769;DHT22;7476;49.404;11.152;2023-03-13T11:49:38;16.90;99.90
14769;DHT22;7476;49.404;11.152;2023-03-13T11:52:19;16.90;99.90
14769;DHT22;7476;49.404;11.152;2023-03-13T11:55:02;16.60;99.90
14769;DHT22;7476;49.404;11.152;2023-03-13T11:57:41;16.50;99.90
14769;DHT22;7476;49.404;11.152;2023-03-13T12:00:21;16.30;99.90
14769;DHT22;7476;49.404;11.152;2023-03-13T12:02:52;16.10;99.90
14769;DHT22;7476;49.404;11.152;2023-03-13T12:05:23;16.00;99.90
14769;DHT22;7476;49.404;11.152;2023-03-13T12:07:58;16.00;99.90
14769;DHT22;7476;49.404;11.152;2023-03-13T12:10:31;15.90;99.90
14769;DHT22;7476;49.404;11.152;2023-03-13T12:13:03;15.90;99.90
14769;DHT22;7476;49.404;11.152;2023-03-13T12:15:34;16.00;99.90
14769;DHT22;7476;49.404;11.152;2023-03-13T12:18:08;16.00;99.90
14769;DHT22;7476;49.404;11.152;2023-03-13T12:20:41;15.90;99.90
14769;DHT22;7476;49.404;11.152;2023-03-13T12:23:18;15.90;99.90
14769;DHT22;7476;49.404;11.152;2023-03-13T12:25:49;15.90;99.90
14769;DHT22;7476;49.404;11.152;2023-03-13T12:28:24;15.90;99.90
14769;DHT22;7476;49.404;11.152;2023-03-13T12:31:00;16.00;99.90
14769;DHT22;7476;49.404;11.152;2023-03-13T12:33:31;16.30;99.90
14769;DHT22;7476;49.404;11.152;2023-03-13T12:36:05;16.60;99.90
14769;DHT22;7476;49.404;11.152;2023-03-13T12:38:38;16.80;99.90
14769;DHT22;7476;49.404;11.152;2023-03-13T12:41:16;17.30;99.90
14769;DHT22;7476;49.404;11.152;2023-03-13T12:43:46;17.70;99.90
14769;DHT22;7476;49.404;11.152;2023-03-13T12:46:34;17.80;99.90
14769;DHT22;7476;49.404;11.152;2023-03-13T12:49:41;18.00;99.90
14769;DHT22;7476;49.404;11.152;2023-03-13T12:52:44;19.80;99.90
14769;DHT22;7476;49.404;11.152;2023-03-13T12:55:48;21.70;99.90
14769;DHT22;7476;49.404;11.152;2023-03-13T12:58:27;21.00;99.90
14769;DHT22;7476;49.404;11.152;2023-03-13T13:00:55;21.10;99.90
14769;DHT22;7476;49.404;11.152;2023-03-13T13:03:30;21.50;99.90
14769;DHT22;7476;49.404;11.152;2023-03-13T13:06:08;21.60;99.90
14769;DHT22;7476;49.404;11.152;2023-03-13T13:08:38;21.70;99.90
14769;DHT22;7476;49.404;11.152;2023-03-13T13:14:56;19.70;99.90
14769;DHT22;7476;49.404;11.152;2023-03-13T13:20:31;18.60;99.90
14769;DHT22;7476;49.404;11.152;2023-03-13T13:26:47;18.90;99.90
14769;DHT22;7476;49.404;11.152;2023-03-13T13:32:34;20.20;99.90
14769;DHT22;7476;49.404;11.152;2023-03-13T13:35:04;20.90;99.90
14769;DHT22;7476;49.404;11.152;2023-03-13T13:37:32;21.60;99.90
14769;DHT22;7476;49.404;11.152;2023-03-13T13:40:17;22.20;99.90
14769;DHT22;7476;49.404;11.152;2023-03-13T13:42:48;22.60;99.90
14769;DHT22;7476;49.404;11.152;2023-03-13T13:45:27;22.20;99.90
14769;DHT22;7476;49.404;11.152;2023-03-13T13:48:23;21.60;99.90
14769;DHT22;7476;49.404;11.152;2023-03-13T13:53:59;22.70;99.90
14769;DHT22;7476;49.404;11.152;2023-03-13T13:56:30;23.40;99.90
14769;DHT22;7476;49.404;11.152;2023-03-13T13:58:59;23.10;99.90
14769;DHT22;7476;49.404;11.152;2023-03-13T14:01:27;23.20;99.90
14769;DHT22;7476;49.404;11.152;2023-03-13T14:04:06;23.20;99.90
14769;DHT22;7476;49.404;11.152;2023-03-13T14:06:37;23.30;99.90
14769;DHT22;7476;49.404;11.152;2023-03-13T14:09:15;23.10;99.90
14769;DHT22;7476;49.404;11.152;2023-03-13T14:11:46;22.50;99.90
14769;DHT22;7476;49.404;11.152;2023-03-13T14:14:14;21.70;99.90
14769;DHT22;7476;49.404;11.152;2023-03-13T14:16:46;21.00;99.90
14769;DHT22;7476;49.404;11.152;2023-03-13T14:19:25;20.40;99.90
14769;DHT22;7476;49.404;11.152;2023-03-13T14:21:58;20.20;99.90
14769;DHT22;7476;49.404;11.152;2023-03-13T14:24:25;19.50;99.90
14769;DHT22;7476;49.404;11.152;2023-03-13T14:26:52;19.30;99.90
14769;DHT22;7476;49.404;11.152;2023-03-13T14:29:19;19.00;99.90
14769;DHT22;7476;49.404;11.152;2023-03-13T14:31:51;18.80;99.90
14769;DHT22;7476;49.404;11.152;2023-03-13T14:34:19;19.00;99.90
14769;DHT22;7476;49.404;11.152;2023-03-13T14:36:48;19.20;99.90
14769;DHT22;7476;49.404;11.152;2023-03-13T14:39:20;19.10;99.90
14769;DHT22;7476;49.404;11.152;2023-03-13T14:41:48;19.10;99.90
14769;DHT22;7476;49.404;11.152;2023-03-13T14:44:21;19.20;99.90
14769;DHT22;7476;49.404;11.152;2023-03-13T14:46:52;19.30;99.90
14769;DHT22;7476;49.404;11.152;2023-03-13T14:49:21;19.30;99.90
14769;DHT22;7476;49.404;11.152;2023-03-13T14:51:58;19.20;99.90
14769;DHT22;7476;49.404;11.152;2023-03-13T14:54:28;19.50;99.90
14769;DHT22;7476;49.404;11.152;2023-03-13T14:57:12;20.00;99.90
14769;DHT22;7476;49.404;11.152;2023-03-13T14:59:39;20.50;99.90
14769;DHT22;7476;49.404;11.152;2023-03-13T15:02:15;20.60;99.90
14769;DHT22;7476;49.404;11.152;2023-03-13T15:05:01;20.90;99.90
14769;DHT22;7476;49.404;11.152;2023-03-13T15:07:36;21.70;99.90
14769;DHT22;7476;49.404;11.152;2023-03-13T15:10:18;22.40;99.90
14769;DHT22;7476;49.404;11.152;2023-03-13T15:12:45;22.40;99.90
14769;DHT22;7476;49.404;11.152;2023-03-13T15:15:11;21.50;99.90
14769;DHT22;7476;49.404;11.152;2023-03-13T15:17:38;20.90;99.90
14769;DHT22;7476;49.404;11.152;2023-03-13T15:20:06;20.60;99.90
14769;DHT22;7476;49.404;11.152;2023-03-13T15:22:36;20.20;99.90
14769;DHT22;7476;49.404;11.152;2023-03-13T15:25:05;20.60;99.90
14769;DHT22;7476;49.404;11.152;2023-03-13T15:27:33;21.20;99.90
14769;DHT22;7476;49.404;11.152;2023-03-13T15:29:59;21.40;99.90
14769;DHT22;7476;49.404;11.152;2023-03-13T15:32:28;21.50;99.90
14769;DHT22;7476;49.404;11.152;2023-03-13T15:34:55;21.20;99.90
14769;DHT22;7476;49.404;11.152;2023-03-13T15:37:23;21.60;99.90
14769;DHT22;7476;49.404;11.152;2023-03-13T15:39:51;22.80;99.90
14769;DHT22;7476;49.404;11.152;2023-03-13T15:42:18;23.90;99.90
14769;DHT22;7476;49.404;11.152;2023-03-13T15:44:45;24.70;99.90
14769;DHT22;7476;49.404;11.152;2023-03-13T15:47:13;25.10;99.90
14769;DHT22;7476;49.404;11.152;2023-03-13T15:49:42;26.10;99.90
14769;DHT22;7476;49.404;11.152;2023-03-13T15:52:14;26.60;99.90
14769;DHT22;7476;49.404;11.152;2023-03-13T15:54:43;27.00;99.90
14769;DHT22;7476;49.404;11.152;2023-03-13T15:57:12;27.00;99.90
14769;DHT22;7476;49.404;11.152;2023-03-13T15:59:40;26.90;99.70
14769;DHT22;7476;49.404;11.152;2023-03-13T16:02:13;26.50;99.70
14769;DHT22;7476;49.404;11.152;2023-03-13T16:04:40;25.90;99.90
14769;DHT22;7476;49.404;11.152;2023-03-13T16:07:09;25.30;99.90
14769;DHT22;7476;49.404;11.152;2023-03-13T16:09:36;25.00;99.90
14769;DHT22;7476;49.404;11.152;2023-03-13T16:12:03;24.90;99.90
14769;DHT22;7476;49.404;11.152;2023-03-13T16:14:31;24.20;99.90